createdAt,value
2022-12-05T00:01:18.806Z,22.25
2022-12-05T00:03:47.177Z,22.20
2022-12-05T00:06:15.223Z,23.90
2022-12-05T00:08:43.027Z,22.27
2022-12-05T00:11:15.439Z,20.95
2022-12-05T00:13:45.740Z,22.40
2022-12-05T00:16:16.510Z,22.60
2022-12-05T00:18:44.437Z,21.45
2022-12-05T00:21:15.184Z,22.20
2022-12-05T00:23:42.813Z,21.65
2022-12-05T00:26:11.207Z,23.63
2022-12-05T00:28:39.079Z,25.20
2022-12-05T00:31:08.734Z,22.20
2022-12-05T00:33:37.735Z,22.63
2022-12-05T00:36:07.634Z,22.52
2022-12-05T00:38:35.364Z,24.98
2022-12-05T00:41:04.292Z,22.98
2022-12-05T00:43:31.855Z,21.45
2022-12-05T00:46:02.413Z,20.50
2022-12-05T00:48:31.064Z,17.73
2022-12-05T00:51:04.023Z,18.13
2022-12-05T00:53:31.689Z,20.88
2022-12-05T00:56:03.565Z,24.95
2022-12-05T00:58:31.232Z,17.63
2022-12-05T01:00:59.368Z,20.55
2022-12-05T01:03:27.006Z,19.17
2022-12-05T01:05:54.637Z,17.42
2022-12-05T01:08:23.458Z,18.05
2022-12-05T01:10:54.979Z,14.68
2022-12-05T01:13:23.180Z,17.17
2022-12-05T01:15:50.905Z,18.35
2022-12-05T01:18:18.943Z,18.65
2022-12-05T01:20:47.142Z,16.40
2022-12-05T01:23:15.116Z,21.60
2022-12-05T01:25:46.592Z,18.20
2022-12-05T01:28:14.868Z,18.05
2022-12-05T01:30:48.483Z,20.02
2022-12-05T01:33:17.059Z,18.70
2022-12-05T01:35:45.115Z,22.25
2022-12-05T01:38:13.835Z,21.50
2022-12-05T01:40:42.303Z,21.55
2022-12-05T01:43:16.747Z,19.90
2022-12-05T01:45:46.727Z,21.02
2022-12-05T01:48:19.145Z,20.23
2022-12-05T01:50:48.589Z,18.77
2022-12-05T01:53:17.235Z,20.70
2022-12-05T01:55:46.327Z,21.15
2022-12-05T01:58:16.592Z,17.08
2022-12-05T02:00:44.868Z,18.50
2022-12-05T02:03:18.159Z,17.75
2022-12-05T02:05:49.518Z,17.17
2022-12-05T02:08:17.591Z,21.83
2022-12-05T02:10:47.386Z,18.40
2022-12-05T02:13:50.565Z,21.92
2022-12-05T02:16:28.528Z,19.23
2022-12-05T02:19:13.903Z,18.17
2022-12-05T02:22:01.393Z,20.80
2022-12-05T02:25:04.280Z,17.08
2022-12-05T02:27:58.763Z,16.88
2022-12-05T02:30:30.551Z,17.27
2022-12-05T02:33:08.125Z,18.27
2022-12-05T02:35:47.811Z,20.35
2022-12-05T02:38:25.996Z,16.55
2022-12-05T02:41:03.403Z,19.10
2022-12-05T02:43:38.128Z,18.80
2022-12-05T02:46:11.020Z,19.00
2022-12-05T02:48:39.750Z,17.58
2022-12-05T02:51:10.548Z,20.35
2022-12-05T02:53:39.963Z,17.90
2022-12-05T02:56:08.678Z,17.17
2022-12-05T02:58:43.034Z,14.80
2022-12-05T03:01:12.434Z,17.52
2022-12-05T03:03:40.080Z,15.77
2022-12-05T03:06:14.278Z,15.38
2022-12-05T03:08:46.553Z,16.95
2022-12-05T03:11:15.457Z,14.52
2022-12-05T03:13:46.710Z,12.90
2022-12-05T03:16:21.084Z,13.85
2022-12-05T03:18:52.264Z,14.70
2022-12-05T03:21:26.981Z,13.48
2022-12-05T03:23:59.245Z,14.68
2022-12-05T03:26:38.713Z,13.07
2022-12-05T03:29:25.077Z,13.52
2022-12-05T03:32:01.185Z,10.52
2022-12-05T03:34:43.316Z,12.57
2022-12-05T03:37:16.021Z,12.35
2022-12-05T03:39:49.035Z,9.57
2022-12-05T03:42:23.483Z,11.60
2022-12-05T03:44:56.147Z,12.15
2022-12-05T03:47:31.489Z,12.00
2022-12-05T03:50:04.316Z,12.45
2022-12-05T03:55:24.465Z,10.18
2022-12-05T03:57:58.458Z,10.55
2022-12-05T04:00:27.036Z,10.20
2022-12-05T04:02:58.856Z,13.38
2022-12-05T04:05:32.289Z,10.43
2022-12-05T04:08:04.725Z,11.07
2022-12-05T04:10:48.284Z,12.30
2022-12-05T04:13:19.398Z,14.88
2022-12-05T04:16:09.538Z,9.60
2022-12-05T04:18:43.720Z,11.70
2022-12-05T04:21:30.009Z,12.45
2022-12-05T04:24:15.286Z,11.77
2022-12-05T04:26:49.318Z,11.85
2022-12-05T04:29:26.835Z,9.63
2022-12-05T04:31:59.919Z,10.05
2022-12-05T04:34:30.562Z,10.82
2022-12-05T04:37:04.365Z,10.25
2022-12-05T04:39:38.430Z,10.82
2022-12-05T04:42:08.804Z,12.65
2022-12-05T04:44:41.646Z,11.18
2022-12-05T04:49:42.186Z,11.50
2022-12-05T04:52:12.313Z,12.27
2022-12-05T04:54:44.630Z,11.13
2022-12-05T04:57:18.612Z,12.63
2022-12-05T04:59:46.699Z,11.23
2022-12-05T05:02:19.188Z,10.40
2022-12-05T05:04:51.984Z,10.02
2022-12-05T05:09:47.803Z,10.82
2022-12-05T05:12:19.004Z,11.20
2022-12-05T05:14:47.006Z,13.00
2022-12-05T05:17:14.606Z,12.02
2022-12-05T05:19:42.171Z,12.27
2022-12-05T05:22:11.017Z,12.25
2022-12-05T05:24:38.542Z,13.05
2022-12-05T05:27:06.051Z,12.13
2022-12-05T05:29:33.588Z,10.45
2022-12-05T05:32:01.080Z,13.48
2022-12-05T05:34:28.708Z,12.82
2022-12-05T05:36:56.222Z,12.45
2022-12-05T05:39:26.825Z,13.90
2022-12-05T05:41:54.330Z,14.18
2022-12-05T05:44:21.861Z,13.63
2022-12-05T05:46:49.435Z,17.00
2022-12-05T05:49:17.028Z,14.70
2022-12-05T05:51:44.575Z,18.13
2022-12-05T05:54:12.133Z,15.65
2022-12-05T05:56:41.110Z,13.48
2022-12-05T05:59:08.638Z,14.63
2022-12-05T06:01:36.143Z,13.07
2022-12-05T06:04:03.770Z,14.48
2022-12-05T06:06:31.379Z,15.90
2022-12-05T06:08:58.911Z,30.88
2022-12-05T06:11:28.520Z,15.43
2022-12-05T06:13:58.432Z,14.63
2022-12-05T06:16:26.484Z,14.15
2022-12-05T06:18:54.763Z,14.02
2022-12-05T06:21:23.049Z,17.02
2022-12-05T06:23:51.234Z,14.32
2022-12-05T06:26:21.597Z,15.25
2022-12-05T06:28:49.779Z,13.48
2022-12-05T06:31:20.840Z,16.00
2022-12-05T06:33:48.564Z,15.82
2022-12-05T06:36:18.086Z,15.60
2022-12-05T06:38:45.672Z,13.57
2022-12-05T06:41:16.315Z,13.38
2022-12-05T06:43:44.556Z,16.17
2022-12-05T06:46:14.336Z,14.00
2022-12-05T06:48:43.342Z,13.63
2022-12-05T06:51:11.779Z,14.07
2022-12-05T06:53:39.471Z,15.20
2022-12-05T06:56:12.359Z,16.90
2022-12-05T06:58:39.935Z,14.38
2022-12-05T07:01:30.242Z,13.77
2022-12-05T07:03:59.329Z,15.25
2022-12-05T07:06:27.412Z,12.95
2022-12-05T07:08:54.955Z,16.30
2022-12-05T07:11:22.502Z,15.35
2022-12-05T07:13:50.035Z,14.27
2022-12-05T07:16:17.600Z,15.27
2022-12-05T07:18:45.206Z,17.13
2022-12-05T07:21:16.432Z,14.75
2022-12-05T07:23:46.120Z,13.10
2022-12-05T07:26:17.397Z,15.65
2022-12-05T07:28:44.939Z,14.80
2022-12-05T07:31:14.480Z,16.50
2022-12-05T07:33:42.231Z,14.63
2022-12-05T07:36:12.217Z,15.05
2022-12-05T07:38:41.506Z,13.93
2022-12-05T07:41:13.534Z,14.77
2022-12-05T07:43:41.386Z,13.77
2022-12-05T07:46:11.285Z,15.90
2022-12-05T07:48:39.327Z,17.33
2022-12-05T07:51:08.610Z,14.60
2022-12-05T07:53:36.606Z,14.20
2022-12-05T07:56:07.553Z,17.13
2022-12-05T07:58:35.984Z,17.58
2022-12-05T08:01:07.785Z,20.20
2022-12-05T08:03:35.369Z,16.73
2022-12-05T08:06:04.383Z,16.92
2022-12-05T08:08:31.982Z,18.02
2022-12-05T08:11:05.791Z,16.23
2022-12-05T08:13:33.466Z,20.85
2022-12-05T08:16:03.622Z,17.02
2022-12-05T08:18:31.813Z,17.67
2022-12-05T08:21:03.390Z,16.17
2022-12-05T08:23:31.817Z,15.38
2022-12-05T08:26:02.948Z,17.98
2022-12-05T08:28:32.597Z,19.00
2022-12-05T08:31:05.330Z,20.13
2022-12-05T08:36:02.207Z,17.13
2022-12-05T08:38:29.858Z,19.15
2022-12-05T08:40:57.397Z,13.55
2022-12-05T08:43:24.881Z,18.65
2022-12-05T08:45:54.513Z,19.27
2022-12-05T08:48:29.025Z,17.45
2022-12-05T08:50:57.365Z,15.23
2022-12-05T08:53:24.877Z,16.73
2022-12-05T08:55:52.638Z,12.10
2022-12-05T08:58:20.195Z,14.63
2022-12-05T09:00:47.749Z,13.90
2022-12-05T09:03:16.581Z,14.55
2022-12-05T09:05:44.108Z,14.82
2022-12-05T09:08:12.208Z,14.52
2022-12-05T09:10:39.783Z,15.88
2022-12-05T09:13:07.344Z,20.52
2022-12-05T09:15:34.926Z,14.90
2022-12-05T09:18:02.491Z,15.55
2022-12-05T09:20:31.351Z,14.10
2022-12-05T09:22:58.899Z,14.27
2022-12-05T09:25:26.413Z,19.63
2022-12-05T09:27:54.755Z,14.15
2022-12-05T09:30:22.324Z,15.32
2022-12-05T09:32:49.834Z,17.52
2022-12-05T09:35:17.386Z,23.73
2022-12-05T09:37:46.233Z,13.25
2022-12-05T09:40:17.736Z,12.82
2022-12-05T09:42:57.436Z,14.73
2022-12-05T09:45:29.913Z,16.70
2022-12-05T09:48:01.222Z,13.82
2022-12-05T09:50:31.483Z,14.27
2022-12-05T09:53:12.513Z,24.38
2022-12-05T09:55:47.070Z,21.50
2022-12-05T09:58:22.927Z,19.20
2022-12-05T10:00:53.863Z,16.20
2022-12-05T10:03:28.552Z,17.02
2022-12-05T10:06:05.883Z,14.60
2022-12-05T10:08:42.905Z,15.63
2022-12-05T10:11:15.282Z,13.93
2022-12-05T10:13:54.907Z,13.70
2022-12-05T10:16:30.379Z,13.75
2022-12-05T10:19:03.733Z,14.35
2022-12-05T10:21:34.528Z,14.20
2022-12-05T10:24:05.885Z,12.63
2022-12-05T10:26:37.671Z,14.45
2022-12-05T10:29:22.355Z,11.13
2022-12-05T10:31:51.107Z,12.75
2022-12-05T10:34:28.953Z,11.40
2022-12-05T10:37:01.790Z,11.27
2022-12-05T10:41:58.210Z,13.02
2022-12-05T10:44:25.940Z,12.52
2022-12-05T10:46:53.589Z,11.10
2022-12-05T10:49:22.022Z,11.95
2022-12-05T10:51:50.071Z,9.25
2022-12-05T10:54:21.807Z,11.55
2022-12-05T10:56:52.388Z,12.07
2022-12-05T10:59:21.843Z,12.43
2022-12-05T11:01:53.228Z,14.32
2022-12-05T11:04:25.710Z,13.07
2022-12-05T11:06:57.571Z,12.15
2022-12-05T11:09:27.335Z,12.33
2022-12-05T11:12:04.044Z,16.70
2022-12-05T11:14:33.432Z,13.68
2022-12-05T11:17:02.891Z,15.48
2022-12-05T11:19:32.955Z,16.17
2022-12-05T11:22:01.323Z,16.35
2022-12-05T11:24:31.439Z,15.38
2022-12-05T11:27:02.045Z,18.90
2022-12-05T11:29:32.384Z,20.45
2022-12-05T11:31:59.912Z,17.63
2022-12-05T11:34:32.873Z,17.33
2022-12-05T11:37:05.905Z,16.90
2022-12-05T11:39:34.043Z,16.75
2022-12-05T11:42:17.955Z,15.85
2022-12-05T11:45:23.093Z,13.50
2022-12-05T11:48:03.562Z,15.57
2022-12-05T11:50:43.777Z,12.93
2022-12-05T11:53:40.352Z,9.13
2022-12-05T11:56:19.099Z,8.93
2022-12-05T11:59:03.261Z,9.93
2022-12-05T12:01:46.314Z,9.50
2022-12-05T12:07:02.705Z,7.07
2022-12-05T12:09:41.308Z,6.95
2022-12-05T12:12:21.164Z,7.75
2022-12-05T12:14:59.909Z,8.15
2022-12-05T12:17:35.297Z,9.07
2022-12-05T12:20:07.751Z,5.60
2022-12-05T12:22:52.177Z,8.88
2022-12-05T12:25:27.067Z,6.95
2022-12-05T12:28:06.195Z,7.90
2022-12-05T12:30:47.895Z,7.95
2022-12-05T12:33:26.947Z,8.77
2022-12-05T12:36:02.032Z,7.32
2022-12-05T12:38:59.132Z,8.68
2022-12-05T12:41:42.858Z,8.32
2022-12-05T12:44:40.170Z,9.35
2022-12-05T12:47:18.157Z,7.93
2022-12-05T12:50:03.651Z,9.02
2022-12-05T12:52:46.047Z,7.00
2022-12-05T12:55:22.521Z,8.30
2022-12-05T12:58:01.503Z,7.82
2022-12-05T13:00:40.852Z,7.43
2022-12-05T13:03:17.339Z,7.85
2022-12-05T13:05:48.838Z,9.05
2022-12-05T13:08:25.026Z,8.75
2022-12-05T13:10:53.382Z,6.93
2022-12-05T13:13:25.172Z,7.70
2022-12-05T13:15:55.838Z,5.97
2022-12-05T13:18:26.360Z,7.78
2022-12-05T13:20:56.562Z,8.43
2022-12-05T13:23:27.673Z,7.70
2022-12-05T13:25:58.624Z,5.93
2022-12-05T13:28:31.664Z,6.68
2022-12-05T13:31:02.745Z,7.00
2022-12-05T13:33:37.908Z,7.47
2022-12-05T13:36:29.603Z,9.52
2022-12-05T13:39:17.562Z,6.97
2022-12-05T13:42:04.797Z,8.38
2022-12-05T13:44:39.309Z,7.38
2022-12-05T13:47:10.126Z,5.20
2022-12-05T13:49:45.693Z,6.28
2022-12-05T13:52:16.839Z,5.90
2022-12-05T13:54:48.320Z,6.13
2022-12-05T13:57:47.617Z,5.50
2022-12-05T14:00:27.137Z,6.03
2022-12-05T14:02:56.784Z,6.00
2022-12-05T14:05:40.022Z,6.00
2022-12-05T14:08:47.674Z,6.07
2022-12-05T14:11:15.232Z,6.35
2022-12-05T14:13:45.235Z,6.20
2022-12-05T14:16:44.257Z,5.82
2022-12-05T14:19:46.373Z,5.78
2022-12-05T14:22:50.648Z,6.03
2022-12-05T14:25:32.060Z,7.07
2022-12-05T14:28:11.788Z,7.00
2022-12-05T14:30:53.161Z,6.43
2022-12-05T14:33:23.713Z,6.00
2022-12-05T14:35:53.635Z,7.32
2022-12-05T14:38:24.785Z,7.03
2022-12-05T14:40:53.660Z,7.10
2022-12-05T14:43:27.320Z,6.72
2022-12-05T14:46:01.417Z,6.38
2022-12-05T14:48:32.746Z,7.07
2022-12-05T14:51:01.767Z,6.65
2022-12-05T14:53:38.538Z,7.68
2022-12-05T14:56:16.185Z,6.13
2022-12-05T14:58:49.783Z,9.07
2022-12-05T15:01:21.836Z,10.00
2022-12-05T15:04:09.177Z,6.05
2022-12-05T15:06:46.323Z,8.65
2022-12-05T15:09:38.516Z,10.63
2022-12-05T15:12:14.063Z,8.77
2022-12-05T15:14:47.300Z,7.28
2022-12-05T15:17:19.331Z,7.70
2022-12-05T15:19:58.391Z,10.60
2022-12-05T15:22:29.058Z,7.95
2022-12-05T15:24:56.968Z,7.68
2022-12-05T15:27:26.129Z,7.55
2022-12-05T15:29:56.468Z,6.55
2022-12-05T15:32:28.704Z,8.20
2022-12-05T15:35:02.347Z,8.32
2022-12-05T15:37:35.678Z,7.35
2022-12-05T15:40:09.794Z,9.75
2022-12-05T15:42:43.249Z,8.93
2022-12-05T15:45:21.670Z,6.90
2022-12-05T15:47:50.684Z,18.75
2022-12-05T15:50:24.904Z,7.95
2022-12-05T15:52:58.433Z,8.68
2022-12-05T15:55:30.404Z,11.90
2022-12-05T15:58:11.223Z,9.65
2022-12-05T16:00:44.011Z,8.60
2022-12-05T16:03:17.682Z,11.88
2022-12-05T16:05:52.091Z,9.43
2022-12-05T16:08:20.141Z,9.35
2022-12-05T16:10:47.873Z,9.15
2022-12-05T16:13:27.849Z,7.75
2022-12-05T16:15:56.249Z,9.50
2022-12-05T16:18:28.378Z,13.30
2022-12-05T16:20:56.359Z,12.32
2022-12-05T16:23:27.526Z,10.30
2022-12-05T16:26:10.569Z,9.90
2022-12-05T16:31:07.774Z,9.57
2022-12-05T16:33:40.202Z,11.77
2022-12-05T16:36:11.643Z,10.00
2022-12-05T16:38:40.804Z,10.65
2022-12-05T16:41:09.229Z,10.15
2022-12-05T16:43:46.177Z,11.73
2022-12-05T16:46:42.292Z,10.20
2022-12-05T16:49:22.158Z,11.15
2022-12-05T16:51:59.654Z,10.00
2022-12-05T16:54:27.227Z,10.40
2022-12-05T16:56:55.003Z,16.02
2022-12-05T16:59:27.888Z,14.27
2022-12-05T17:01:55.524Z,16.90
2022-12-05T17:04:23.104Z,14.93
2022-12-05T17:06:50.674Z,14.25
2022-12-05T17:09:18.143Z,14.68
2022-12-05T17:11:48.078Z,15.30
2022-12-05T17:14:18.076Z,14.52
2022-12-05T17:16:47.228Z,16.52
2022-12-05T17:19:15.050Z,16.02
2022-12-05T17:21:43.629Z,14.52
2022-12-05T17:24:16.530Z,13.90
2022-12-05T17:26:44.552Z,14.35
2022-12-05T17:29:14.851Z,14.35
2022-12-05T17:31:42.453Z,12.70
2022-12-05T17:34:16.630Z,13.98
2022-12-05T17:36:44.334Z,11.65
2022-12-05T17:39:11.943Z,12.88
2022-12-05T17:41:39.513Z,13.38
2022-12-05T17:44:07.973Z,13.55
2022-12-05T17:46:35.526Z,14.27
2022-12-05T17:49:03.178Z,20.27
2022-12-05T17:51:32.333Z,18.00
2022-12-05T17:53:59.881Z,17.13
2022-12-05T17:56:27.380Z,16.45
2022-12-05T17:58:54.885Z,15.70
2022-12-05T18:01:22.462Z,17.33
2022-12-05T18:03:50.074Z,18.80
2022-12-05T18:06:18.592Z,19.02
2022-12-05T18:08:47.450Z,18.55
2022-12-05T18:11:16.534Z,17.30
2022-12-05T18:13:44.040Z,17.45
2022-12-05T18:16:12.236Z,14.63
2022-12-05T18:18:40.269Z,17.42
2022-12-05T18:21:09.519Z,16.83
2022-12-05T18:23:38.229Z,15.98
2022-12-05T18:26:12.434Z,15.32
2022-12-05T18:28:40.665Z,17.20
2022-12-05T18:31:10.705Z,15.82
2022-12-05T18:33:38.305Z,22.17
2022-12-05T18:36:29.615Z,14.57
2022-12-05T18:38:59.379Z,20.95
2022-12-05T18:41:28.655Z,21.05
2022-12-05T18:43:56.277Z,19.50
2022-12-05T18:46:24.850Z,22.30
2022-12-05T18:48:52.470Z,25.50
2022-12-05T18:51:22.083Z,20.15
2022-12-05T18:53:53.264Z,20.70
2022-12-05T18:56:24.622Z,19.15
2022-12-05T18:59:00.303Z,19.60
2022-12-05T19:01:31.336Z,23.45
2022-12-05T19:04:00.733Z,33.13
2022-12-05T19:06:30.614Z,21.85
2022-12-05T19:09:01.019Z,23.90
2022-12-05T19:11:29.946Z,19.58
2022-12-05T19:14:01.458Z,16.23
2022-12-05T19:16:37.449Z,18.27
2022-12-05T19:19:17.068Z,19.88
2022-12-05T19:21:46.771Z,21.10
2022-12-05T19:24:24.514Z,20.13
2022-12-05T19:26:55.799Z,19.15
2022-12-05T19:29:31.451Z,22.30
2022-12-05T19:32:01.395Z,26.27
2022-12-05T19:34:29.226Z,24.48
2022-12-05T19:36:57.231Z,18.40
2022-12-05T19:39:27.079Z,21.50
2022-12-05T19:41:57.451Z,20.33
2022-12-05T19:44:27.260Z,17.30
2022-12-05T19:46:55.305Z,18.73
2022-12-05T19:49:24.030Z,16.65
2022-12-05T19:51:52.620Z,15.88
2022-12-05T19:54:22.049Z,18.17
2022-12-05T19:56:49.886Z,16.23
2022-12-05T19:59:18.182Z,16.35
2022-12-05T20:01:50.946Z,15.93
2022-12-05T20:06:48.680Z,18.55
2022-12-05T20:09:19.152Z,18.13
2022-12-05T20:11:56.049Z,21.90
2022-12-05T20:14:26.987Z,20.05
2022-12-05T20:16:57.232Z,19.02
2022-12-05T20:19:25.181Z,19.50
2022-12-05T20:21:55.107Z,19.05
2022-12-05T20:24:22.848Z,17.92
2022-12-05T20:26:50.484Z,20.00
2022-12-05T20:29:18.079Z,19.77
2022-12-05T20:31:45.808Z,22.85
2022-12-05T20:34:15.782Z,19.38
2022-12-05T20:36:44.058Z,21.70
2022-12-05T20:39:14.619Z,33.28
2022-12-05T20:41:42.370Z,34.65
2022-12-05T20:44:11.784Z,24.73
2022-12-05T20:46:39.661Z,22.80
2022-12-05T20:49:07.260Z,18.75
2022-12-05T20:51:36.285Z,19.50
2022-12-05T20:54:05.490Z,22.58
2022-12-05T20:56:34.286Z,18.30
2022-12-05T20:59:03.880Z,21.17
2022-12-05T21:01:33.647Z,18.73
2022-12-05T21:04:02.143Z,17.52
2022-12-05T21:06:31.264Z,18.38
2022-12-05T21:09:01.222Z,17.85
2022-12-05T21:11:30.773Z,20.52
2022-12-05T21:14:00.158Z,19.20
2022-12-05T21:16:28.247Z,20.67
2022-12-05T21:18:56.559Z,19.48
2022-12-05T21:21:26.958Z,20.48
2022-12-05T21:23:56.657Z,19.38
2022-12-05T21:26:27.550Z,26.02
2022-12-05T21:28:55.624Z,18.52
2022-12-05T21:31:26.268Z,20.77
2022-12-05T21:33:55.784Z,20.23
2022-12-05T21:36:25.774Z,19.42
2022-12-05T21:38:56.229Z,23.42
2022-12-05T21:41:26.360Z,19.92
2022-12-05T21:43:55.617Z,20.73
2022-12-05T21:46:24.650Z,18.08
2022-12-05T21:48:52.634Z,17.05
2022-12-05T21:51:21.011Z,17.80
2022-12-05T21:53:48.834Z,18.52
2022-12-05T21:56:23.000Z,18.23
2022-12-05T21:58:53.259Z,17.33
2022-12-05T22:01:22.910Z,18.30
2022-12-05T22:03:52.715Z,17.38
2022-12-05T22:06:20.369Z,20.73
2022-12-05T22:08:48.127Z,20.33
2022-12-05T22:11:18.082Z,16.90
2022-12-05T22:13:46.303Z,17.20
2022-12-05T22:16:15.928Z,18.25
2022-12-05T22:18:43.579Z,14.70
2022-12-05T22:21:12.990Z,17.42
2022-12-05T22:23:40.620Z,17.27
2022-12-05T22:26:11.073Z,21.98
2022-12-05T22:28:39.739Z,21.02
2022-12-05T22:31:10.283Z,17.58
2022-12-05T22:33:39.890Z,17.75
2022-12-05T22:36:09.392Z,17.50
2022-12-05T22:38:39.549Z,17.52
2022-12-05T22:41:10.000Z,15.23
2022-12-05T22:43:38.940Z,17.23
2022-12-05T22:46:07.685Z,15.25
2022-12-05T22:48:36.173Z,15.23
2022-12-05T22:51:06.612Z,19.13
2022-12-05T22:53:34.754Z,14.68
2022-12-05T22:56:04.418Z,15.75
2022-12-05T22:58:32.826Z,15.57
2022-12-05T23:01:10.243Z,14.40
2022-12-05T23:03:38.133Z,19.92
2022-12-05T23:06:11.754Z,19.98
2022-12-05T23:08:42.481Z,16.92
2022-12-05T23:11:11.003Z,14.98
2022-12-05T23:13:39.900Z,18.98
2022-12-05T23:16:09.468Z,16.13
2022-12-05T23:18:46.678Z,18.17
2022-12-05T23:21:19.603Z,18.67
2022-12-05T23:26:16.559Z,17.85
2022-12-05T23:28:44.849Z,17.95
2022-12-05T23:31:13.762Z,18.98
2022-12-05T23:33:42.678Z,19.25
2022-12-05T23:36:11.087Z,17.88
2022-12-05T23:38:42.123Z,17.65
2022-12-05T23:41:13.409Z,17.38
2022-12-05T23:43:41.520Z,19.70
2022-12-05T23:46:09.897Z,19.83
2022-12-05T23:48:37.888Z,18.63
2022-12-05T23:51:09.422Z,16.45
2022-12-05T23:53:39.419Z,19.40
2022-12-05T23:56:11.435Z,19.30
2022-12-05T23:58:39.560Z,19.20
